Time;durP1;ratioP1;P1;durP2;ratioP2;P2;SDS_P1;SDS_P2;PMS_P1;PMS_P2;Temp;Humidity;BMP_temperature;BMP_pressure;BME280_temperature;BME280_humidity;BME280_pressure;Samples;Min_cycle;Max_cycle;Signal;HPM_P1;HPM_P2
2022/03/26 00:00:26;;;;;;;72.30;39.40;;;;;;;6.86;49.20;100834.33;106858;1271;107657;-81
2022/03/26 00:03:19;;;;;;;70.10;39.70;;;;;;;6.86;49.33;100832.94;107718;1270;137953;-81
2022/03/26 00:05:51;;;;;;;68.70;40.30;;;;;;;6.84;49.55;100834.68;107774;1270;95181;-81
2022/03/26 00:08:23;;;;;;;66.60;39.40;;;;;;;6.82;49.79;100835.39;107628;1270;137837;-81
2022/03/26 00:10:55;;;;;;;70.30;40.00;;;;;;;6.79;49.93;100833.48;107890;1269;109372;-81
2022/03/26 00:13:27;;;;;;;73.70;40.70;;;;;;;6.78;50.28;100828.32;107675;1268;138369;-82
2022/03/26 00:15:59;;;;;;;67.10;39.30;;;;;;;6.78;50.31;100825.89;107071;1270;96465;-82
2022/03/26 00:18:31;;;;;;;65.60;39.10;;;;;;;6.76;50.30;100828.52;106316;1270;96576;-81
2022/03/26 00:21:03;;;;;;;71.70;40.30;;;;;;;6.74;50.72;100828.01;106332;1271;139673;-80
2022/03/26 00:23:35;;;;;;;65.30;40.20;;;;;;;6.73;50.73;100817.99;106437;1271;107048;-83
2022/03/26 00:26:10;;;;;;;68.30;39.60;;;;;;;6.69;50.92;100811.29;106331;1271;138263;-81
2022/03/26 00:28:42;;;;;;;68.70;39.30;;;;;;;6.65;51.24;100806.48;106888;1271;96519;-82
2022/03/26 00:31:14;;;;;;;76.00;39.90;;;;;;;6.61;51.23;100805.63;106311;1271;96376;-83
2022/03/26 00:33:49;;;;;;;68.00;39.10;;;;;;;6.58;51.61;100805.13;106121;1268;137169;-82
2022/03/26 00:36:21;;;;;;;73.90;40.80;;;;;;;6.56;51.75;100808.44;107206;1270;107874;-82
2022/03/26 00:38:53;;;;;;;71.10;40.10;;;;;;;6.54;51.85;100808.10;107680;1270;138309;-83
2022/03/26 00:41:25;;;;;;;75.40;40.80;;;;;;;6.53;52.11;100798.95;107845;1270;94899;-83
2022/03/26 00:43:57;;;;;;;73.40;40.30;;;;;;;6.51;52.11;100799.50;107771;1269;137551;-82
2022/03/26 00:46:29;;;;;;;71.80;40.70;;;;;;;6.48;52.05;100806.08;107741;1270;108318;-82
2022/03/26 00:49:02;;;;;;;68.90;39.50;;;;;;;6.46;52.18;100804.69;107866;1268;108916;-82
2022/03/26 00:51:35;;;;;;;73.00;41.10;;;;;;;6.43;52.41;100801.25;107672;1270;137460;-82
2022/03/26 00:54:08;;;;;;;70.40;40.30;;;;;;;6.43;52.69;100800.39;107815;1270;94760;-82
2022/03/26 00:56:42;;;;;;;67.40;39.40;;;;;;;6.40;52.49;100797.48;107161;1269;138509;-81
2022/03/26 00:59:14;;;;;;;67.70;40.20;;;;;;;6.37;52.65;100795.94;106749;1270;110682;-80
2022/03/26 01:01:46;;;;;;;67.20;41.00;;;;;;;6.34;52.87;100791.65;106240;1270;138666;-80
2022/03/26 01:04:19;;;;;;;68.70;39.90;;;;;;;6.31;52.84;100789.78;106368;1271;109078;-80
2022/03/26 01:06:51;;;;;;;72.20;40.00;;;;;;;6.29;53.30;100788.92;106272;1270;96465;-80
2022/03/26 01:09:23;;;;;;;67.20;39.30;;;;;;;6.27;53.33;100784.25;106870;1270;139139;-81
2022/03/26 01:11:55;;;;;;;65.20;38.70;;;;;;;6.25;53.54;100781.34;106591;1271;111267;-80
2022/03/26 01:14:28;;;;;;;60.80;36.40;;;;;;;6.21;53.81;100781.02;106086;1271;138329;-80
2022/03/26 01:17:00;;;;;;;56.90;34.80;;;;;;;6.19;53.86;100772.91;106440;1269;108344;-80
2022/03/26 01:19:32;;;;;;;63.90;36.60;;;;;;;6.20;53.96;100768.25;106988;1271;140090;-80
2022/03/26 01:22:04;;;;;;;61.30;35.80;;;;;;;6.19;54.20;100764.63;107747;1270;96195;-82
2022/03/26 01:24:36;;;;;;;64.70;36.50;;;;;;;6.19;54.23;100770.15;107697;1271;108865;-82
2022/03/26 01:27:09;;;;;;;68.10;37.80;;;;;;;6.20;54.49;100775.84;107178;1271;138232;-82
2022/03/26 01:29:41;;;;;;;63.20;37.90;;;;;;;6.19;54.33;100774.64;107703;1270;108844;-78
2022/03/26 01:32:13;;;;;;;63.00;37.60;;;;;;;6.17;54.71;100772.58;107696;1269;138669;-77
2022/03/26 01:34:46;;;;;;;64.00;37.30;;;;;;;6.16;54.52;100773.45;106732;1270;96510;-80
2022/03/26 01:37:19;;;;;;;65.90;37.90;;;;;;;6.14;54.70;100769.67;107803;1270;111226;-80
2022/03/26 01:39:51;;;;;;;71.50;36.90;;;;;;;6.11;54.87;100768.31;107213;1270;139700;-80
2022/03/26 01:42:23;;;;;;;59.40;36.00;;;;;;;6.10;54.77;100764.84;107818;1270;107532;-81
2022/03/26 01:44:55;;;;;;;62.70;36.20;;;;;;;6.07;55.11;100762.95;107727;1270;137654;-81
2022/03/26 01:47:27;;;;;;;58.30;36.90;;;;;;;6.05;55.12;100758.66;107840;1270;94851;-80
2022/03/26 01:49:59;;;;;;;72.00;37.90;;;;;;;6.05;55.17;100758.30;107720;1270;137651;-81
2022/03/26 01:52:31;;;;;;;66.60;38.30;;;;;;;6.06;55.49;100751.91;107016;1270;109026;-80
2022/03/26 01:55:04;;;;;;;66.20;37.90;;;;;;;6.04;55.38;100750.38;106554;1270;108766;-80
2022/03/26 01:57:36;;;;;;;64.10;34.60;;;;;;;6.01;55.82;100747.80;107141;1271;137609;-79
2022/03/26 02:00:11;;;;;;;59.80;34.40;;;;;;;5.99;55.70;100752.66;106194;1270;96454;-82
2022/03/26 02:02:44;;;;;;;55.50;33.60;;;;;;;5.96;55.81;100748.54;107344;1270;138595;-83
2022/03/26 02:05:18;;;;;;;60.20;33.90;;;;;;;5.95;56.03;100741.13;107696;1270;108903;-82
2022/03/26 02:07:51;;;;;;;63.00;35.30;;;;;;;5.96;56.34;100731.45;107784;1270;139014;-82
2022/03/26 02:10:24;;;;;;;57.30;34.30;;;;;;;6.00;56.21;100731.25;107766;1270;95321;-83
2022/03/26 02:12:56;;;;;;;64.50;35.40;;;;;;;6.03;56.29;100728.11;107802;1271;95070;-78
2022/03/26 02:15:28;;;;;;;60.20;35.40;;;;;;;6.04;56.48;100725.34;107694;1270;137370;-79
2022/03/26 02:18:00;;;;;;;57.40;34.70;;;;;;;6.03;56.46;100724.14;107866;1270;108777;-78
2022/03/26 02:20:32;;;;;;;59.80;33.40;;;;;;;6.02;56.64;100719.32;107723;1270;137631;-79
2022/03/26 02:23:04;;;;;;;59.60;35.00;;;;;;;5.97;56.83;100714.19;106392;1270;96557;-78
2022/03/26 02:25:36;;;;;;;60.80;35.80;;;;;;;5.93;57.02;100710.23;106264;1271;137761;-78
2022/03/26 02:28:09;;;;;;;62.80;36.20;;;;;;;5.90;57.06;100703.33;107387;1270;111148;-79
2022/03/26 02:30:41;;;;;;;67.70;35.60;;;;;;;5.89;57.50;100701.42;107098;1270;107704;-79
2022/03/26 02:33:13;;;;;;;65.30;36.40;;;;;;;5.85;57.42;100701.60;107419;1269;137456;-79
2022/03/26 02:35:45;;;;;;;61.40;35.00;;;;;;;5.83;57.60;100704.22;107822;1270;94681;-80
2022/03/26 02:38:17;;;;;;;60.20;33.00;;;;;;;5.80;57.47;100699.92;107728;1270;138244;-79
2022/03/26 02:40:49;;;;;;;61.20;34.20;;;;;;;5.80;57.44;100699.75;106542;1270;109320;-80
2022/03/26 02:43:21;;;;;;;58.90;33.50;;;;;;;5.80;57.81;100690.60;107524;1269;109047;-81
2022/03/26 02:45:53;;;;;;;58.20;34.00;;;;;;;5.83;57.82;100684.72;107655;1270;138452;-81
2022/03/26 02:48:25;;;;;;;57.80;33.20;;;;;;;5.86;57.88;100680.55;107863;1270;94732;-80
2022/03/26 02:50:57;;;;;;;59.00;34.70;;;;;;;5.89;57.84;100677.26;107606;1270;138606;-81
2022/03/26 02:53:30;;;;;;;62.20;34.80;;;;;;;5.90;57.71;100668.63;107698;1270;111221;-80
2022/03/26 02:56:01;;;;;;;61.30;35.80;;;;;;;5.89;57.99;100662.42;106173;1270;138177;-79
2022/03/26 02:58:33;;;;;;;65.00;35.20;;;;;;;5.89;58.17;100662.23;107591;1270;108683;-81
2022/03/26 03:01:05;;;;;;;65.20;36.40;;;;;;;5.87;57.96;100661.90;107795;1270;94470;-81
2022/03/26 03:03:37;;;;;;;59.60;35.70;;;;;;;5.86;58.22;100659.33;107537;1270;137892;-82
2022/03/26 03:06:09;;;;;;;58.30;36.10;;;;;;;5.83;58.30;100657.79;107522;1270;109755;-82
2022/03/26 03:08:41;;;;;;;58.70;35.30;;;;;;;5.80;58.35;100653.85;107698;1270;138579;-82
2022/03/26 03:11:13;;;;;;;62.00;36.60;;;;;;;5.76;58.44;100651.64;106885;1270;107773;-81
2022/03/26 03:13:45;;;;;;;61.60;35.70;;;;;;;5.74;58.55;100645.77;106215;1270;138852;-81
2022/03/26 03:16:17;;;;;;;61.70;34.50;;;;;;;5.71;58.66;100642.16;106352;1271;96487;-80
2022/03/26 03:18:51;;;;;;;62.90;35.70;;;;;;;5.72;58.81;100638.17;106421;1270;110641;-81
2022/03/26 03:21:23;;;;;;;58.10;33.20;;;;;;;5.72;58.89;100640.24;107658;1270;138244;-81
2022/03/26 03:23:55;;;;;;;57.40;34.90;;;;;;;5.72;59.13;100633.86;107858;1269;107702;-81
2022/03/26 03:26:27;;;;;;;62.50;34.60;;;;;;;5.73;59.08;100632.65;107677;1270;137764;-81
2022/03/26 03:28:59;;;;;;;60.50;35.80;;;;;;;5.76;59.29;100626.96;106566;1270;96367;-82
2022/03/26 03:31:32;;;;;;;58.30;34.90;;;;;;;5.76;59.15;100627.65;106366;1270;137747;-74
2022/03/26 03:34:04;;;;;;;59.40;35.20;;;;;;;5.79;59.23;100629.17;106845;1271;107003;-78
2022/03/26 03:36:36;;;;;;;61.50;35.40;;;;;;;5.81;59.28;100628.83;105925;1271;108824;-78
2022/03/26 03:39:08;;;;;;;61.10;36.20;;;;;;;5.80;59.39;100629.52;106011;1271;137630;-78
2022/03/26 03:41:40;;;;;;;61.70;35.10;;;;;;;5.79;59.52;100627.46;106376;1271;96584;-79
2022/03/26 03:44:12;;;;;;;69.20;36.10;;;;;;;5.76;59.48;100631.45;106295;1271;138348;-77
2022/03/26 03:46:44;;;;;;;66.60;35.00;;;;;;;5.74;59.90;100626.09;106223;1270;108300;-77
2022/03/26 03:49:16;;;;;;;59.90;34.80;;;;;;;5.73;60.11;100621.09;106379;1271;107874;-77
2022/03/26 03:51:49;;;;;;;61.00;34.00;;;;;;;5.69;59.78;100620.09;106200;1271;139351;-78
2022/03/26 03:54:21;;;;;;;60.90;34.70;;;;;;;5.67;60.04;100619.24;106470;1271;96591;-78
2022/03/26 03:56:53;;;;;;;61.70;35.80;;;;;;;5.66;60.28;100619.59;107497;1270;138101;-78
2022/03/26 03:59:25;;;;;;;60.20;33.60;;;;;;;5.66;60.40;100617.17;107513;1271;107766;-78
2022/03/26 04:01:57;;;;;;;63.30;34.90;;;;;;;5.66;60.44;100617.01;106199;1270;138705;-79
2022/03/26 04:04:29;;;;;;;54.70;33.90;;;;;;;5.67;60.43;100609.58;106322;1270;96605;-80
2022/03/26 04:07:01;;;;;;;57.30;34.20;;;;;;;5.67;60.27;100603.71;106247;1270;96399;-80
2022/03/26 04:09:33;;;;;;;50.30;31.60;;;;;;;5.68;60.46;100596.98;106235;1270;137528;-80
2022/03/26 04:12:06;;;;;;;56.20;33.50;;;;;;;5.66;60.32;100594.92;106539;1270;108377;-81
2022/03/26 04:14:43;;;;;;;55.80;33.30;;;;;;;5.67;60.42;100594.75;107708;1270;137477;-82
2022/03/26 04:17:15;;;;;;;56.80;33.70;;;;;;;5.68;60.54;100586.98;107733;1270;94813;-82
2022/03/26 04:19:47;;;;;;;59.20;32.60;;;;;;;5.71;60.76;100581.25;107665;1270;138000;-79
2022/03/26 04:22:19;;;;;;;56.20;33.40;;;;;;;5.72;60.56;100577.80;106320;1270;110861;-79
2022/03/26 04:24:51;;;;;;;57.00;33.90;;;;;;;5.75;60.67;100578.83;106257;1270;109086;-79
2022/03/26 04:27:23;;;;;;;55.30;32.40;;;;;;;5.78;60.71;100570.35;106132;1271;138324;-78
2022/03/26 04:29:55;;;;;;;56.50;31.50;;;;;;;5.79;60.81;100569.83;106220;1271;96593;-78
2022/03/26 04:32:28;;;;;;;54.20;32.20;;;;;;;5.80;60.76;100564.13;106206;1270;138037;-77
2022/03/26 04:35:00;;;;;;;53.40;31.20;;;;;;;5.82;60.65;100563.41;106322;1271;111033;-83
2022/03/26 04:37:33;;;;;;;56.60;32.50;;;;;;;5.84;60.79;100564.77;106183;1271;138392;-75
2022/03/26 04:40:08;;;;;;;54.20;31.40;;;;;;;5.87;60.80;100570.27;106422;1268;108483;-80
2022/03/26 04:42:41;;;;;;;58.60;32.40;;;;;;;5.88;60.92;100570.60;106296;1271;96459;-78
2022/03/26 04:45:13;;;;;;;54.60;32.20;;;;;;;5.89;61.02;100573.53;106337;1271;138363;-80
2022/03/26 04:47:46;;;;;;;56.20;32.80;;;;;;;5.90;61.04;100569.92;106421;1271;109466;-80
2022/03/26 04:50:18;;;;;;;52.80;31.60;;;;;;;5.93;61.10;100574.06;106300;1271;137753;-81
2022/03/26 04:52:50;;;;;;;57.30;31.30;;;;;;;5.95;60.91;100563.88;106310;1271;110020;-80
2022/03/26 04:55:22;;;;;;;56.00;32.40;;;;;;;5.98;61.02;100562.27;106244;1271;96519;-80
2022/03/26 04:57:55;;;;;;;63.80;33.10;;;;;;;6.03;60.88;100558.42;106078;1271;137221;-79
2022/03/26 05:00:27;;;;;;;60.70;32.40;;;;;;;6.11;61.01;100563.55;106309;1271;110000;-80
2022/03/26 05:03:00;;;;;;;53.00;31.60;;;;;;;6.15;60.88;100554.89;106200;1271;137444;-79
2022/03/26 05:05:31;;;;;;;56.00;31.20;;;;;;;6.21;60.84;100549.65;106325;1271;108244;-78
2022/03/26 05:08:04;;;;;;;55.40;31.70;;;;;;;6.28;60.63;100548.02;106147;1270;138351;-78
2022/03/26 05:10:36;;;;;;;59.30;32.60;;;;;;;6.41;60.36;100539.59;106338;1271;96484;-79
2022/03/26 05:13:08;;;;;;;52.30;30.80;;;;;;;6.68;60.30;100544.31;106845;1271;110101;-80
2022/03/26 05:15:40;;;;;;;50.90;28.80;;;;;;;7.44;59.93;100547.45;106206;1271;138204;-80
2022/03/26 05:18:13;;;;;;;50.30;30.00;;;;;;;8.58;58.42;100534.10;106370;1268;109228;-81
2022/03/26 05:20:45;;;;;;;49.80;30.50;;;;;;;9.80;56.70;100527.79;106233;1271;138740;-81
2022/03/26 05:23:17;;;;;;;48.80;28.40;;;;;;;11.04;54.71;100525.52;106376;1271;96494;-81
2022/03/26 05:25:49;;;;;;;46.60;28.60;;;;;;;12.15;52.50;100512.92;106213;1271;137903;-80
2022/03/26 05:28:21;;;;;;;44.50;27.80;;;;;;;13.06;50.51;100507.52;106357;1268;108178;-82
2022/03/26 05:30:54;;;;;;;44.10;28.00;;;;;;;13.82;48.66;100507.14;106365;1271;108860;-80
2022/03/26 05:33:26;;;;;;;44.50;28.00;;;;;;;14.47;47.13;100498.41;106167;1271;138054;-82
2022/03/26 05:35:58;;;;;;;43.50;28.50;;;;;;;14.85;45.71;100495.34;106251;1271;96679;-81
2022/03/26 05:38:31;;;;;;;43.90;28.80;;;;;;;14.19;44.88;100493.86;106240;1271;138105;-81
2022/03/26 05:41:03;;;;;;;43.40;29.60;;;;;;;13.39;45.05;100488.96;106377;1270;109122;-81
2022/03/26 05:43:35;;;;;;;44.80;28.10;;;;;;;12.83;45.69;100488.34;106120;1271;138104;-80
2022/03/26 05:46:07;;;;;;;44.50;27.60;;;;;;;13.22;46.16;100482.64;106269;1271;96459;-79
2022/03/26 05:48:39;;;;;;;49.10;28.40;;;;;;;13.98;44.94;100484.66;106251;1271;96495;-79
2022/03/26 05:51:11;;;;;;;44.80;28.40;;;;;;;13.62;44.53;100481.95;106089;1271;137751;-80
2022/03/26 05:53:44;;;;;;;42.70;28.20;;;;;;;13.22;44.71;100483.86;106351;1271;108831;-78
2022/03/26 05:56:17;;;;;;;43.20;28.40;;;;;;;14.10;45.14;100492.32;106990;1271;138440;-80
2022/03/26 05:58:50;;;;;;;42.60;28.00;;;;;;;15.58;43.65;100488.02;106309;1270;96491;-78
2022/03/26 06:01:23;;;;;;;38.10;26.30;;;;;;;16.95;42.03;100486.02;106284;1271;96471;-79
2022/03/26 06:03:55;;;;;;;39.80;26.40;;;;;;;18.13;40.03;100482.31;106053;1271;138558;-79
2022/03/26 06:06:27;;;;;;;37.20;26.90;;;;;;;18.87;38.85;100486.23;105791;1269;108400;-79
2022/03/26 06:08:59;;;;;;;39.50;26.70;;;;;;;19.62;37.37;100473.47;106091;1271;138456;-79
2022/03/26 06:11:31;;;;;;;38.80;25.40;;;;;;;20.24;36.15;100467.36;106088;1271;96481;-80
2022/03/26 06:14:04;;;;;;;38.20;26.70;;;;;;;20.74;35.02;100455.90;106106;1270;140241;-79
2022/03/26 06:16:36;;;;;;;40.80;25.20;;;;;;;21.39;34.23;100454.77;107841;1271;110151;-80
2022/03/26 06:19:08;;;;;;;37.90;24.60;;;;;;;22.12;33.11;100452.59;107837;1271;109215;-78
2022/03/26 06:21:40;;;;;;;33.50;24.10;;;;;;;22.71;32.22;100446.90;107657;1270;137919;-77
2022/03/26 06:24:13;;;;;;;33.40;23.70;;;;;;;23.19;31.02;100448.56;106285;1271;96489;-75
2022/03/26 06:26:47;;;;;;;30.20;23.90;;;;;;;23.63;30.40;100434.98;106215;1271;137747;-76
2022/03/26 06:29:19;;;;;;;31.70;22.50;;;;;;;24.03;29.81;100430.70;106308;1271;109450;-77
2022/03/26 06:31:51;;;;;;;36.70;22.80;;;;;;;24.31;28.80;100427.06;106163;1271;138004;-77
2022/03/26 06:34:24;;;;;;;30.40;21.70;;;;;;;24.62;28.57;100429.75;106314;1270;108927;-76
2022/03/26 06:36:56;;;;;;;33.30;21.80;;;;;;;24.90;27.77;100426.45;106227;1268;96482;-76
2022/03/26 06:39:28;;;;;;;37.10;22.40;;;;;;;25.01;27.60;100429.04;106132;1271;137673;-76
2022/03/26 06:42:00;;;;;;;37.90;22.10;;;;;;;25.21;27.27;100416.02;106345;1271;111110;-77
2022/03/26 06:44:32;;;;;;;29.30;20.90;;;;;;;25.31;26.90;100416.76;106243;1271;137926;-76
2022/03/26 06:47:06;;;;;;;30.90;21.40;;;;;;;25.59;26.46;100415.94;106326;1271;109140;-76
2022/03/26 06:49:38;;;;;;;36.20;21.10;;;;;;;25.82;25.96;100411.73;107689;1270;138446;-76
2022/03/26 06:52:11;;;;;;;28.90;20.00;;;;;;;25.44;25.68;100407.94;107225;1268;96461;-77
2022/03/26 06:54:43;;;;;;;33.40;19.90;;;;;;;25.35;25.76;100418.09;106325;1271;111384;-76
2022/03/26 06:57:15;;;;;;;31.00;19.10;;;;;;;25.33;25.48;100416.07;106224;1268;137793;-77
2022/03/26 06:59:48;;;;;;;33.00;19.20;;;;;;;24.89;25.21;100413.83;107384;1268;108841;-79
2022/03/26 07:02:20;;;;;;;39.00;18.90;;;;;;;24.94;25.59;100419.91;106221;1268;138319;-74
2022/03/26 07:04:52;;;;;;;36.50;19.30;;;;;;;25.37;25.43;100418.16;107684;1268;94568;-75
2022/03/26 07:07:24;;;;;;;34.70;19.30;;;;;;;25.86;24.99;100413.33;106384;1268;111171;-74
2022/03/26 07:10:02;;;;;;;38.10;18.80;;;;;;;26.24;24.31;100414.70;106390;1268;138678;-77
2022/03/26 07:12:34;;;;;;;36.00;19.50;;;;;;;26.11;23.73;100406.61;106325;1268;109272;-75
2022/03/26 07:15:11;;;;;;;33.00;20.20;;;;;;;24.96;24.42;100409.24;107237;1268;138057;-74
2022/03/26 07:17:44;;;;;;;35.30;21.20;;;;;;;23.24;25.20;100398.59;106653;1268;96523;-75
2022/03/26 07:20:16;;;;;;;34.20;21.10;;;;;;;22.36;26.68;100404.31;106321;1268;137847;-75
2022/03/26 07:22:48;;;;;;;34.40;22.00;;;;;;;22.76;26.54;100400.11;106335;1271;108882;-74
2022/03/26 07:25:20;;;;;;;34.60;20.60;;;;;;;22.84;26.47;100402.14;105976;1268;108402;-73
2022/03/26 07:27:52;;;;;;;35.50;20.90;;;;;;;22.92;26.74;100401.63;107558;1268;139199;-75
2022/03/26 07:30:24;;;;;;;29.30;20.20;;;;;;;23.48;26.70;100396.86;107676;1268;94768;-75
2022/03/26 07:32:56;;;;;;;31.60;19.40;;;;;;;24.26;25.99;100390.52;107808;1267;137700;-75
2022/03/26 07:35:30;;;;;;;34.00;21.50;;;;;;;24.87;25.38;100388.70;107894;1268;107861;-76
2022/03/26 07:38:02;;;;;;;34.90;19.90;;;;;;;25.44;25.06;100394.19;107779;1268;138311;-75
2022/03/26 07:40:34;;;;;;;30.80;20.80;;;;;;;25.61;24.33;100391.73;107134;1268;96477;-74
2022/03/26 07:43:07;;;;;;;37.60;19.50;;;;;;;24.97;24.63;100390.89;107860;1268;96763;-76
2022/03/26 07:45:39;;;;;;;28.40;18.80;;;;;;;24.79;24.79;100396.59;107763;1267;137696;-74
2022/03/26 07:48:12;;;;;;;28.90;18.70;;;;;;;24.94;24.67;100391.98;106565;1268;108444;-78
2022/03/26 07:50:44;;;;;;;34.10;17.50;;;;;;;25.16;24.64;100392.85;106372;1268;137872;-76
2022/03/26 07:53:16;;;;;;;29.20;19.20;;;;;;;25.55;24.49;100389.66;106319;1268;96504;-73
2022/03/26 07:55:54;;;;;;;30.00;18.40;;;;;;;26.01;23.94;100384.30;107760;1268;138106;-76
2022/03/26 07:58:26;;;;;;;36.00;19.50;;;;;;;25.96;23.64;100387.02;107863;1268;109993;-76
2022/03/26 08:00:58;;;;;;;30.40;18.40;;;;;;;25.46;23.98;100391.75;107895;1268;108564;-77
2022/03/26 08:03:30;;;;;;;28.90;18.10;;;;;;;24.83;24.23;100388.02;107718;1268;137868;-76
2022/03/26 08:06:02;;;;;;;32.40;18.30;;;;;;;24.48;24.78;100391.86;107884;1268;94923;-77
2022/03/26 08:08:40;;;;;;;28.60;17.00;;;;;;;24.33;25.09;100390.13;107817;1268;138031;-76
2022/03/26 08:11:12;;;;;;;30.20;17.90;;;;;;;24.27;25.27;100391.02;107811;1268;110127;-76
2022/03/26 08:13:44;;;;;;;29.00;17.10;;;;;;;24.28;25.13;100392.89;107779;1268;138464;-76
2022/03/26 08:16:17;;;;;;;27.90;17.20;;;;;;;24.08;25.52;100394.72;107862;1267;109471;-76
2022/03/26 08:18:49;;;;;;;22.80;16.40;;;;;;;23.82;25.77;100386.71;107943;1268;95843;-77
2022/03/26 08:21:21;;;;;;;27.20;15.70;;;;;;;23.43;25.87;100388.23;107599;1268;138867;-77
2022/03/26 08:23:54;;;;;;;23.50;16.00;;;;;;;23.23;26.22;100387.93;107939;1268;110651;-77
2022/03/26 08:26:29;;;;;;;31.10;15.40;;;;;;;22.73;26.72;100395.37;107414;1268;137875;-78
2022/03/26 08:29:03;;;;;;;25.30;17.70;;;;;;;22.87;27.21;100399.88;107278;1267;108812;-77
2022/03/26 08:31:35;;;;;;;22.40;16.00;;;;;;;23.06;27.06;100390.92;106271;1270;96924;-77
2022/03/26 08:34:07;;;;;;;23.70;14.80;;;;;;;23.24;26.90;100377.75;106284;1269;137556;-76
2022/03/26 08:36:39;;;;;;;19.30;13.50;;;;;;;23.67;26.87;100381.89;106788;1268;111189;-76
2022/03/26 08:39:11;;;;;;;18.30;12.50;;;;;;;23.66;26.57;100381.30;107753;1268;139269;-76
2022/03/26 08:41:43;;;;;;;19.90;12.40;;;;;;;22.88;27.16;100388.43;107897;1268;107540;-77
2022/03/26 08:44:15;;;;;;;25.70;14.40;;;;;;;21.90;27.99;100395.84;107735;1270;138448;-77
2022/03/26 08:46:47;;;;;;;25.70;13.70;;;;;;;20.88;29.34;100386.99;107947;1267;94566;-77
2022/03/26 08:49:19;;;;;;;27.70;14.30;;;;;;;19.74;30.58;100390.96;107882;1270;111028;-76
2022/03/26 08:51:51;;;;;;;24.40;12.40;;;;;;;18.86;32.19;100405.05;107740;1270;138439;-77
2022/03/26 08:54:23;;;;;;;20.70;12.60;;;;;;;18.14;33.62;100405.88;107896;1267;109076;-77
2022/03/26 08:56:55;;;;;;;22.30;13.30;;;;;;;17.60;34.25;100410.98;106626;1268;137869;-78
2022/03/26 08:59:27;;;;;;;25.70;13.50;;;;;;;17.15;35.17;100416.09;106316;1268;97102;-79
2022/03/26 09:01:59;;;;;;;21.10;13.80;;;;;;;16.70;35.81;100422.06;107456;1267;138290;-76
2022/03/26 09:04:32;;;;;;;25.10;14.50;;;;;;;16.27;36.86;100412.27;106777;1268;109092;-76
2022/03/26 09:07:05;;;;;;;28.00;13.90;;;;;;;15.75;37.74;100425.15;106412;1268;108890;-75
2022/03/26 09:09:37;;;;;;;33.00;16.50;;;;;;;15.36;38.26;100432.14;107643;1268;169920;-76
2022/03/26 09:12:10;;;;;;;26.80;16.50;;;;;;;15.07;38.97;100435.84;107967;1267;94714;-76
2022/03/26 09:14:43;;;;;;;27.00;15.90;;;;;;;14.73;40.22;100432.71;107730;1268;138352;-76
2022/03/26 09:17:15;;;;;;;31.30;17.00;;;;;;;14.37;40.44;100446.19;107123;1270;109137;-76
2022/03/26 09:19:47;;;;;;;29.90;17.70;;;;;;;14.17;41.30;100432.58;107764;1268;138981;-77
2022/03/26 09:22:19;;;;;;;34.90;19.00;;;;;;;13.93;42.36;100436.25;107899;1265;95182;-77
2022/03/26 09:24:51;;;;;;;55.90;30.30;;;;;;;13.66;42.64;100442.14;107754;1268;96141;-67
2022/03/26 09:27:23;;;;;;;31.50;21.20;;;;;;;13.50;43.40;100442.95;107760;1268;138792;-75
2022/03/26 09:29:55;;;;;;;36.50;21.90;;;;;;;13.37;44.20;100443.85;107852;1268;107751;-75
2022/03/26 09:32:27;;;;;;;32.90;21.70;;;;;;;13.27;43.89;100447.22;107680;1268;138634;-74
2022/03/26 09:34:59;;;;;;;28.80;19.20;;;;;;;13.22;43.81;100445.27;107920;1267;94653;-75
2022/03/26 09:37:31;;;;;;;29.80;19.30;;;;;;;13.25;44.04;100448.66;107812;1269;94752;-75
2022/03/26 09:40:04;;;;;;;34.30;19.50;;;;;;;13.26;44.20;100448.80;107742;1269;137457;-75
2022/03/26 09:42:39;;;;;;;30.90;21.00;;;;;;;13.25;44.40;100446.41;107938;1268;108791;-75
2022/03/26 09:45:11;;;;;;;31.50;20.50;;;;;;;13.17;44.57;100444.45;107120;1267;138036;-73
2022/03/26 09:47:43;;;;;;;31.60;20.60;;;;;;;13.03;44.89;100442.71;106415;1268;96605;-72
2022/03/26 09:50:15;;;;;;;33.90;20.70;;;;;;;12.93;45.29;100450.27;107558;1267;141866;-73
2022/03/26 09:52:48;;;;;;;33.30;21.40;;;;;;;12.87;45.42;100454.50;107954;1268;111202;-74
2022/03/26 09:55:21;;;;;;;32.90;20.60;;;;;;;12.79;45.94;100453.61;107924;1268;108903;-74
2022/03/26 09:57:54;;;;;;;31.80;21.50;;;;;;;12.67;46.30;100461.02;107450;1268;138798;-74
2022/03/26 10:00:26;;;;;;;34.80;21.30;;;;;;;12.57;46.54;100463.32;107939;1267;94471;-74
2022/03/26 10:02:58;;;;;;;36.20;22.50;;;;;;;12.45;47.33;100463.95;107289;1267;138716;-73
2022/03/26 10:05:37;;;;;;;33.10;22.30;;;;;;;12.29;47.71;100465.90;106484;1268;110949;-72
2022/03/26 10:08:20;;;;;;;35.20;20.80;;;;;;;12.14;48.04;100465.55;107379;1268;138553;-74
2022/03/26 10:10:53;;;;;;;35.50;20.80;;;;;;;12.02;48.65;100468.59;107947;1267;106599;-74
2022/03/26 10:13:38;;;;;;;29.10;20.20;;;;;;;11.92;49.39;100463.18;107922;1267;94731;-74
2022/03/26 10:16:11;;;;;;;33.30;21.00;;;;;;;11.79;50.09;100465.02;107862;1267;138637;-74
2022/03/26 10:18:44;;;;;;;32.00;21.60;;;;;;;11.68;50.87;100473.40;107980;1268;111223;-74
2022/03/26 10:21:18;;;;;;;32.20;20.90;;;;;;;11.52;51.76;100473.05;107727;1269;137750;-74
2022/03/26 10:23:55;;;;;;;36.20;21.90;;;;;;;11.38;52.28;100488.27;107947;1268;107225;-74
2022/03/26 10:26:28;;;;;;;32.50;21.70;;;;;;;11.26;52.49;100490.73;107422;1267;138083;-73
2022/03/26 10:29:00;;;;;;;29.80;21.30;;;;;;;11.18;53.01;100486.13;106493;1268;96590;-74
2022/03/26 10:34:30;;;;;;;;;;;;;;;11.06;53.62;100492.92;106233;1274;108351;-72
2022/03/26 10:37:02;;;;;;;31.60;21.10;;;;;;;10.98;54.17;100500.33;106479;1271;107701;-73
2022/03/26 10:39:36;;;;;;;36.70;21.80;;;;;;;10.89;54.07;100499.69;107122;1272;139083;-72
2022/03/26 10:42:08;;;;;;;34.30;21.70;;;;;;;10.87;54.18;100496.95;107163;1273;95442;-72
2022/03/26 10:44:40;;;;;;;29.70;21.90;;;;;;;10.89;54.66;100499.84;107552;1273;139422;-73
2022/03/26 10:47:17;;;;;;;34.40;22.70;;;;;;;10.92;54.38;100502.04;107026;1273;108752;-73
2022/03/26 10:49:49;;;;;;;32.50;21.40;;;;;;;10.94;54.43;100500.40;107599;1273;107362;-74
2022/03/26 10:52:21;;;;;;;33.40;21.90;;;;;;;10.93;54.64;100501.48;107558;1272;137977;-73
2022/03/26 10:54:54;;;;;;;32.20;21.30;;;;;;;10.87;54.63;100504.78;106120;1273;96478;-74
2022/03/26 10:57:26;;;;;;;31.20;21.50;;;;;;;10.86;54.54;100506.72;107185;1272;137726;-74
2022/03/26 10:59:59;;;;;;;32.20;21.50;;;;;;;10.89;54.53;100509.94;106143;1274;108839;-73
2022/03/26 11:02:31;;;;;;;34.20;21.40;;;;;;;10.95;54.39;100505.61;107167;1273;138669;-74
2022/03/26 11:05:03;;;;;;;35.70;21.90;;;;;;;10.97;54.47;100505.20;107619;1273;94667;-74
2022/03/26 11:07:39;;;;;;;31.70;20.80;;;;;;;10.98;54.55;100501.18;107670;1271;94621;-74
2022/03/26 11:10:13;;;;;;;34.80;20.60;;;;;;;10.97;54.91;100498.95;107550;1270;138042;-74
2022/03/26 11:12:47;;;;;;;30.00;19.70;;;;;;;10.96;54.57;100499.17;107213;1268;109053;-73
2022/03/26 11:15:24;;;;;;;35.90;20.90;;;;;;;10.98;54.78;100501.73;106297;1268;138008;-73
2022/03/26 11:18:25;;;;;;;33.90;20.40;;;;;;;11.02;54.59;100501.59;107920;1267;94835;-73
2022/03/26 11:21:19;;;;;;;31.60;20.90;;;;;;;11.14;54.57;100503.64;107724;1268;138436;-74
2022/03/26 11:24:08;;;;;;;31.90;19.00;;;;;;;11.30;54.20;100500.20;107921;1268;110194;-74
2022/03/26 11:26:53;;;;;;;36.40;19.70;;;;;;;11.39;54.00;100500.09;107793;1268;137988;-74